sensor_id;sensor_type;location;lat;lon;timestamp;P1;durP1;ratioP1;P2;durP2;ratioP2
27802;SDS011;15182;48.174;11.562;2023-08-08T00:00:25;1.60;;;1.60;;
27802;SDS011;15182;48.174;11.562;2023-08-08T00:02:53;1.60;;;1.60;;
27802;SDS011;15182;48.174;11.562;2023-08-08T00:05:20;1.60;;;1.60;;
27802;SDS011;15182;48.174;11.562;2023-08-08T00:07:48;1.70;;;1.70;;
27802;SDS011;15182;48.174;11.562;2023-08-08T00:10:16;1.50;;;1.50;;
27802;SDS011;15182;48.174;11.562;2023-08-08T00:12:45;1.50;;;1.50;;
27802;SDS011;15182;48.174;11.562;2023-08-08T00:15:13;1.70;;;1.70;;
27802;SDS011;15182;48.174;11.562;2023-08-08T00:17:41;1.80;;;1.80;;
27802;SDS011;15182;48.174;11.562;2023-08-08T00:20:09;2.10;;;2.00;;
27802;SDS011;15182;48.174;11.562;2023-08-08T00:22:38;1.70;;;1.70;;
27802;SDS011;15182;48.174;11.562;2023-08-08T00:25:06;1.70;;;1.70;;
27802;SDS011;15182;48.174;11.562;2023-08-08T00:27:34;1.60;;;1.60;;
27802;SDS011;15182;48.174;11.562;2023-08-08T00:30:09;1.60;;;1.60;;
27802;SDS011;15182;48.174;11.562;2023-08-08T00:32:39;1.70;;;1.70;;
27802;SDS011;15182;48.174;11.562;2023-08-08T00:35:07;1.60;;;1.60;;
27802;SDS011;15182;48.174;11.562;2023-08-08T00:37:35;1.43;;;1.43;;
27802;SDS011;15182;48.174;11.562;2023-08-08T00:40:04;1.60;;;1.60;;
27802;SDS011;15182;48.174;11.562;2023-08-08T00:42:33;1.73;;;1.73;;
27802;SDS011;15182;48.174;11.562;2023-08-08T00:45:02;1.50;;;1.50;;
27802;SDS011;15182;48.174;11.562;2023-08-08T00:47:32;1.50;;;1.50;;
27802;SDS011;15182;48.174;11.562;2023-08-08T00:50:02;1.80;;;1.70;;
27802;SDS011;15182;48.174;11.562;2023-08-08T00:52:32;1.93;;;1.83;;
27802;SDS011;15182;48.174;11.562;2023-08-08T00:55:01;1.43;;;1.43;;
27802;SDS011;15182;48.174;11.562;2023-08-08T00:57:29;1.60;;;1.60;;
27802;SDS011;15182;48.174;11.562;2023-08-08T00:59:57;1.87;;;1.77;;
27802;SDS011;15182;48.174;11.562;2023-08-08T01:02:25;1.60;;;1.60;;
27802;SDS011;15182;48.174;11.562;2023-08-08T01:04:54;2.30;;;1.50;;
27802;SDS011;15182;48.174;11.562;2023-08-08T01:07:25;1.40;;;1.40;;
27802;SDS011;15182;48.174;11.562;2023-08-08T01:10:02;1.50;;;1.50;;
27802;SDS011;15182;48.174;11.562;2023-08-08T01:12:35;1.60;;;1.60;;
27802;SDS011;15182;48.174;11.562;2023-08-08T01:15:09;1.40;;;1.40;;
27802;SDS011;15182;48.174;11.562;2023-08-08T01:17:38;1.50;;;1.50;;
27802;SDS011;15182;48.174;11.562;2023-08-08T01:20:10;1.60;;;1.60;;
27802;SDS011;15182;48.174;11.562;2023-08-08T01:22:42;1.40;;;1.40;;
27802;SDS011;15182;48.174;11.562;2023-08-08T01:25:18;1.60;;;1.60;;
27802;SDS011;15182;48.174;11.562;2023-08-08T01:27:49;1.70;;;1.70;;
27802;SDS011;15182;48.174;11.562;2023-08-08T01:30:16;1.63;;;1.63;;
27802;SDS011;15182;48.174;11.562;2023-08-08T01:32:44;1.80;;;1.80;;
27802;SDS011;15182;48.174;11.562;2023-08-08T01:35:12;1.73;;;1.70;;
27802;SDS011;15182;48.174;11.562;2023-08-08T01:37:41;1.67;;;1.67;;
27802;SDS011;15182;48.174;11.562;2023-08-08T01:40:15;1.50;;;1.50;;
27802;SDS011;15182;48.174;11.562;2023-08-08T01:42:46;1.60;;;1.60;;
27802;SDS011;15182;48.174;11.562;2023-08-08T01:45:15;1.60;;;1.60;;
27802;SDS011;15182;48.174;11.562;2023-08-08T01:47:48;1.90;;;1.80;;
27802;SDS011;15182;48.174;11.562;2023-08-08T01:50:17;1.30;;;1.30;;
27802;SDS011;15182;48.174;11.562;2023-08-08T01:52:47;1.50;;;1.50;;
27802;SDS011;15182;48.174;11.562;2023-08-08T01:55:14;1.50;;;1.50;;
27802;SDS011;15182;48.174;11.562;2023-08-08T01:57:44;2.03;;;1.80;;
27802;SDS011;15182;48.174;11.562;2023-08-08T02:00:12;1.60;;;1.60;;
27802;SDS011;15182;48.174;11.562;2023-08-08T02:02:43;1.40;;;1.40;;
27802;SDS011;15182;48.174;11.562;2023-08-08T02:05:11;1.80;;;1.50;;
27802;SDS011;15182;48.174;11.562;2023-08-08T02:07:38;3.20;;;1.50;;
27802;SDS011;15182;48.174;11.562;2023-08-08T02:10:06;1.60;;;1.60;;
27802;SDS011;15182;48.174;11.562;2023-08-08T02:12:34;1.90;;;1.80;;
27802;SDS011;15182;48.174;11.562;2023-08-08T02:15:04;1.70;;;1.70;;
27802;SDS011;15182;48.174;11.562;2023-08-08T02:17:34;1.70;;;1.70;;
27802;SDS011;15182;48.174;11.562;2023-08-08T02:20:04;1.77;;;1.77;;
27802;SDS011;15182;48.174;11.562;2023-08-08T02:22:33;1.70;;;1.70;;
27802;SDS011;15182;48.174;11.562;2023-08-08T02:25:02;1.60;;;1.60;;
27802;SDS011;15182;48.174;11.562;2023-08-08T02:27:31;1.70;;;1.70;;
27802;SDS011;15182;48.174;11.562;2023-08-08T02:29:58;1.90;;;1.80;;
27802;SDS011;15182;48.174;11.562;2023-08-08T02:32:27;1.60;;;1.60;;
27802;SDS011;15182;48.174;11.562;2023-08-08T02:34:55;1.50;;;1.50;;
27802;SDS011;15182;48.174;11.562;2023-08-08T02:37:24;1.80;;;1.80;;
27802;SDS011;15182;48.174;11.562;2023-08-08T02:39:51;1.80;;;1.80;;
27802;SDS011;15182;48.174;11.562;2023-08-08T02:42:19;1.57;;;1.57;;
27802;SDS011;15182;48.174;11.562;2023-08-08T02:44:48;1.67;;;1.67;;
27802;SDS011;15182;48.174;11.562;2023-08-08T02:47:15;1.60;;;1.60;;
27802;SDS011;15182;48.174;11.562;2023-08-08T02:49:45;1.90;;;1.80;;
27802;SDS011;15182;48.174;11.562;2023-08-08T02:52:14;2.37;;;1.53;;
27802;SDS011;15182;48.174;11.562;2023-08-08T02:54:41;1.50;;;1.50;;
27802;SDS011;15182;48.174;11.562;2023-08-08T02:57:09;1.73;;;1.73;;
27802;SDS011;15182;48.174;11.562;2023-08-08T02:59:38;1.60;;;1.50;;
27802;SDS011;15182;48.174;11.562;2023-08-08T03:02:07;1.87;;;1.70;;
27802;SDS011;15182;48.174;11.562;2023-08-08T03:04:36;1.93;;;1.80;;
27802;SDS011;15182;48.174;11.562;2023-08-08T03:07:07;1.60;;;1.60;;
27802;SDS011;15182;48.174;11.562;2023-08-08T03:09:37;1.30;;;1.30;;
27802;SDS011;15182;48.174;11.562;2023-08-08T03:12:05;1.67;;;1.67;;
27802;SDS011;15182;48.174;11.562;2023-08-08T03:14:35;1.60;;;1.60;;
27802;SDS011;15182;48.174;11.562;2023-08-08T03:17:03;1.63;;;1.63;;
27802;SDS011;15182;48.174;11.562;2023-08-08T03:19:32;1.73;;;1.73;;
27802;SDS011;15182;48.174;11.562;2023-08-08T03:22:02;1.70;;;1.70;;
27802;SDS011;15182;48.174;11.562;2023-08-08T03:24:34;1.80;;;1.80;;
27802;SDS011;15182;48.174;11.562;2023-08-08T03:27:01;1.40;;;1.40;;
27802;SDS011;15182;48.174;11.562;2023-08-08T03:29:30;1.70;;;1.60;;
27802;SDS011;15182;48.174;11.562;2023-08-08T03:31:59;1.57;;;1.57;;
27802;SDS011;15182;48.174;11.562;2023-08-08T03:34:30;1.60;;;1.60;;
27802;SDS011;15182;48.174;11.562;2023-08-08T03:36:59;1.63;;;1.63;;
27802;SDS011;15182;48.174;11.562;2023-08-08T03:39:27;1.60;;;1.60;;
27802;SDS011;15182;48.174;11.562;2023-08-08T03:41:56;1.63;;;1.53;;
27802;SDS011;15182;48.174;11.562;2023-08-08T03:44:24;1.80;;;1.80;;
27802;SDS011;15182;48.174;11.562;2023-08-08T03:46:52;1.57;;;1.47;;
27802;SDS011;15182;48.174;11.562;2023-08-08T03:49:20;1.80;;;1.80;;
27802;SDS011;15182;48.174;11.562;2023-08-08T03:51:47;1.50;;;1.50;;
27802;SDS011;15182;48.174;11.562;2023-08-08T03:54:16;1.87;;;1.77;;
27802;SDS011;15182;48.174;11.562;2023-08-08T03:56:45;1.60;;;1.60;;
27802;SDS011;15182;48.174;11.562;2023-08-08T03:59:14;1.70;;;1.63;;
27802;SDS011;15182;48.174;11.562;2023-08-08T04:01:42;1.60;;;1.60;;
27802;SDS011;15182;48.174;11.562;2023-08-08T04:04:09;1.80;;;1.80;;
27802;SDS011;15182;48.174;11.562;2023-08-08T04:06:37;1.73;;;1.73;;
27802;SDS011;15182;48.174;11.562;2023-08-08T04:09:05;1.63;;;1.63;;
27802;SDS011;15182;48.174;11.562;2023-08-08T04:11:33;1.70;;;1.70;;
27802;SDS011;15182;48.174;11.562;2023-08-08T04:14:01;1.70;;;1.70;;
27802;SDS011;15182;48.174;11.562;2023-08-08T04:16:30;1.47;;;1.47;;
27802;SDS011;15182;48.174;11.562;2023-08-08T04:18:58;1.83;;;1.73;;
27802;SDS011;15182;48.174;11.562;2023-08-08T04:21:29;1.40;;;1.40;;
27802;SDS011;15182;48.174;11.562;2023-08-08T04:23:58;1.90;;;1.80;;
27802;SDS011;15182;48.174;11.562;2023-08-08T04:26:26;2.00;;;1.80;;
27802;SDS011;15182;48.174;11.562;2023-08-08T04:28:53;1.90;;;1.90;;
27802;SDS011;15182;48.174;11.562;2023-08-08T04:31:21;1.70;;;1.60;;
27802;SDS011;15182;48.174;11.562;2023-08-08T04:33:52;1.83;;;1.83;;
27802;SDS011;15182;48.174;11.562;2023-08-08T04:36:24;2.00;;;2.00;;
27802;SDS011;15182;48.174;11.562;2023-08-08T04:38:52;1.70;;;1.70;;
27802;SDS011;15182;48.174;11.562;2023-08-08T04:41:19;1.70;;;1.70;;
27802;SDS011;15182;48.174;11.562;2023-08-08T04:43:47;1.73;;;1.73;;
27802;SDS011;15182;48.174;11.562;2023-08-08T04:46:15;2.23;;;2.13;;
27802;SDS011;15182;48.174;11.562;2023-08-08T04:48:43;2.17;;;2.07;;
27802;SDS011;15182;48.174;11.562;2023-08-08T04:51:12;1.80;;;1.80;;
27802;SDS011;15182;48.174;11.562;2023-08-08T04:53:40;2.57;;;2.23;;
27802;SDS011;15182;48.174;11.562;2023-08-08T04:56:07;2.00;;;2.00;;
27802;SDS011;15182;48.174;11.562;2023-08-08T04:58:35;2.00;;;2.00;;
27802;SDS011;15182;48.174;11.562;2023-08-08T05:01:03;1.70;;;1.70;;
27802;SDS011;15182;48.174;11.562;2023-08-08T05:03:31;1.93;;;1.93;;
27802;SDS011;15182;48.174;11.562;2023-08-08T05:05:58;1.80;;;1.70;;
27802;SDS011;15182;48.174;11.562;2023-08-08T05:08:28;1.70;;;1.70;;
27802;SDS011;15182;48.174;11.562;2023-08-08T05:10:55;1.80;;;1.80;;
27802;SDS011;15182;48.174;11.562;2023-08-08T05:13:23;2.00;;;2.00;;
27802;SDS011;15182;48.174;11.562;2023-08-08T05:15:51;1.90;;;1.90;;
27802;SDS011;15182;48.174;11.562;2023-08-08T05:18:19;1.80;;;1.80;;
27802;SDS011;15182;48.174;11.562;2023-08-08T05:20:46;1.80;;;1.80;;
27802;SDS011;15182;48.174;11.562;2023-08-08T05:23:14;2.03;;;2.03;;
27802;SDS011;15182;48.174;11.562;2023-08-08T05:25:43;1.70;;;1.70;;
27802;SDS011;15182;48.174;11.562;2023-08-08T05:28:12;2.20;;;2.10;;
27802;SDS011;15182;48.174;11.562;2023-08-08T05:30:40;2.03;;;1.70;;
27802;SDS011;15182;48.174;11.562;2023-08-08T05:33:08;1.80;;;1.80;;
27802;SDS011;15182;48.174;11.562;2023-08-08T05:35:35;1.63;;;1.63;;
27802;SDS011;15182;48.174;11.562;2023-08-08T05:38:03;1.87;;;1.87;;
27802;SDS011;15182;48.174;11.562;2023-08-08T05:40:33;1.63;;;1.63;;
27802;SDS011;15182;48.174;11.562;2023-08-08T05:43:03;1.90;;;1.80;;
27802;SDS011;15182;48.174;11.562;2023-08-08T05:45:31;3.17;;;2.03;;
27802;SDS011;15182;48.174;11.562;2023-08-08T05:47:59;1.80;;;1.80;;
27802;SDS011;15182;48.174;11.562;2023-08-08T05:50:27;2.17;;;1.83;;
27802;SDS011;15182;48.174;11.562;2023-08-08T05:52:55;7.83;;;1.83;;
27802;SDS011;15182;48.174;11.562;2023-08-08T05:55:22;1.63;;;1.63;;
27802;SDS011;15182;48.174;11.562;2023-08-08T05:57:50;1.60;;;1.50;;
27802;SDS011;15182;48.174;11.562;2023-08-08T06:00:19;1.80;;;1.80;;
27802;SDS011;15182;48.174;11.562;2023-08-08T06:02:47;2.67;;;2.00;;
27802;SDS011;15182;48.174;11.562;2023-08-08T06:05:16;3.17;;;1.73;;
27802;SDS011;15182;48.174;11.562;2023-08-08T06:07:44;1.80;;;1.80;;
27802;SDS011;15182;48.174;11.562;2023-08-08T06:10:12;1.80;;;1.80;;
27802;SDS011;15182;48.174;11.562;2023-08-08T06:12:40;2.77;;;1.90;;
27802;SDS011;15182;48.174;11.562;2023-08-08T06:15:08;1.80;;;1.80;;
27802;SDS011;15182;48.174;11.562;2023-08-08T06:17:38;5.03;;;1.93;;
27802;SDS011;15182;48.174;11.562;2023-08-08T06:20:06;1.90;;;1.90;;
27802;SDS011;15182;48.174;11.562;2023-08-08T06:22:36;2.00;;;1.90;;
27802;SDS011;15182;48.174;11.562;2023-08-08T06:25:04;1.90;;;1.90;;
27802;SDS011;15182;48.174;11.562;2023-08-08T06:27:33;1.97;;;1.90;;
27802;SDS011;15182;48.174;11.562;2023-08-08T06:30:01;1.70;;;1.70;;
27802;SDS011;15182;48.174;11.562;2023-08-08T06:32:29;2.10;;;2.10;;
27802;SDS011;15182;48.174;11.562;2023-08-08T06:34:59;1.90;;;1.80;;
27802;SDS011;15182;48.174;11.562;2023-08-08T06:37:26;1.80;;;1.80;;
27802;SDS011;15182;48.174;11.562;2023-08-08T06:39:54;1.90;;;1.80;;
27802;SDS011;15182;48.174;11.562;2023-08-08T06:42:22;1.67;;;1.67;;
27802;SDS011;15182;48.174;11.562;2023-08-08T06:44:55;1.70;;;1.70;;
27802;SDS011;15182;48.174;11.562;2023-08-08T06:47:23;1.90;;;1.80;;
27802;SDS011;15182;48.174;11.562;2023-08-08T06:49:51;3.23;;;2.10;;
27802;SDS011;15182;48.174;11.562;2023-08-08T06:52:20;1.67;;;1.67;;
27802;SDS011;15182;48.174;11.562;2023-08-08T06:54:48;1.87;;;1.87;;
27802;SDS011;15182;48.174;11.562;2023-08-08T06:57:16;1.80;;;1.70;;
27802;SDS011;15182;48.174;11.562;2023-08-08T06:59:44;5.50;;;1.83;;
27802;SDS011;15182;48.174;11.562;2023-08-08T07:02:16;1.70;;;1.70;;
27802;SDS011;15182;48.174;11.562;2023-08-08T07:04:44;5.50;;;1.80;;
27802;SDS011;15182;48.174;11.562;2023-08-08T07:07:11;1.80;;;1.70;;
27802;SDS011;15182;48.174;11.562;2023-08-08T07:09:41;3.47;;;1.63;;
27802;SDS011;15182;48.174;11.562;2023-08-08T07:12:09;1.93;;;1.93;;
27802;SDS011;15182;48.174;11.562;2023-08-08T07:14:36;1.70;;;1.70;;
27802;SDS011;15182;48.174;11.562;2023-08-08T07:17:04;1.93;;;1.83;;
27802;SDS011;15182;48.174;11.562;2023-08-08T07:19:32;1.70;;;1.60;;
27802;SDS011;15182;48.174;11.562;2023-08-08T07:22:00;1.40;;;1.40;;
27802;SDS011;15182;48.174;11.562;2023-08-08T07:24:28;1.80;;;1.70;;
27802;SDS011;15182;48.174;11.562;2023-08-08T07:26:57;1.40;;;1.40;;
27802;SDS011;15182;48.174;11.562;2023-08-08T07:29:25;1.80;;;1.70;;
27802;SDS011;15182;48.174;11.562;2023-08-08T07:31:53;1.80;;;1.80;;
27802;SDS011;15182;48.174;11.562;2023-08-08T07:34:22;1.45;;;1.45;;
27802;SDS011;15182;48.174;11.562;2023-08-08T07:36:50;1.67;;;1.67;;
27802;SDS011;15182;48.174;11.562;2023-08-08T07:39:18;1.73;;;1.63;;
27802;SDS011;15182;48.174;11.562;2023-08-08T07:41:46;1.90;;;1.90;;
27802;SDS011;15182;48.174;11.562;2023-08-08T07:44:15;2.05;;;1.90;;
27802;SDS011;15182;48.174;11.562;2023-08-08T07:46:43;1.65;;;1.55;;
27802;SDS011;15182;48.174;11.562;2023-08-08T07:49:11;2.83;;;1.73;;
27802;SDS011;15182;48.174;11.562;2023-08-08T07:51:38;1.52;;;1.42;;
27802;SDS011;15182;48.174;11.562;2023-08-08T07:54:06;1.38;;;1.35;;
27802;SDS011;15182;48.174;11.562;2023-08-08T07:56:36;1.50;;;1.50;;
27802;SDS011;15182;48.174;11.562;2023-08-08T07:59:04;1.40;;;1.40;;
27802;SDS011;15182;48.174;11.562;2023-08-08T08:01:33;1.70;;;1.60;;
27802;SDS011;15182;48.174;11.562;2023-08-08T08:04:01;1.40;;;1.40;;
27802;SDS011;15182;48.174;11.562;2023-08-08T08:06:29;1.70;;;1.70;;
27802;SDS011;15182;48.174;11.562;2023-08-08T08:08:57;1.60;;;1.60;;
27802;SDS011;15182;48.174;11.562;2023-08-08T08:11:25;1.67;;;1.58;;
27802;SDS011;15182;48.174;11.562;2023-08-08T08:13:53;1.50;;;1.50;;
27802;SDS011;15182;48.174;11.562;2023-08-08T08:16:21;1.58;;;1.58;;
27802;SDS011;15182;48.174;11.562;2023-08-08T08:18:50;1.60;;;1.50;;
27802;SDS011;15182;48.174;11.562;2023-08-08T08:21:17;2.63;;;1.70;;
27802;SDS011;15182;48.174;11.562;2023-08-08T08:23:46;1.50;;;1.50;;
27802;SDS011;15182;48.174;11.562;2023-08-08T08:26:14;1.60;;;1.60;;
27802;SDS011;15182;48.174;11.562;2023-08-08T08:28:42;1.50;;;1.50;;
27802;SDS011;15182;48.174;11.562;2023-08-08T08:31:10;1.35;;;1.35;;
27802;SDS011;15182;48.174;11.562;2023-08-08T08:33:38;1.30;;;1.30;;
27802;SDS011;15182;48.174;11.562;2023-08-08T08:36:07;1.40;;;1.40;;
27802;SDS011;15182;48.174;11.562;2023-08-08T08:38:35;1.70;;;1.60;;
27802;SDS011;15182;48.174;11.562;2023-08-08T08:41:02;2.05;;;1.50;;
27802;SDS011;15182;48.174;11.562;2023-08-08T08:43:31;1.40;;;1.40;;
27802;SDS011;15182;48.174;11.562;2023-08-08T08:46:00;1.65;;;1.40;;
27802;SDS011;15182;48.174;11.562;2023-08-08T08:48:29;1.23;;;1.23;;
27802;SDS011;15182;48.174;11.562;2023-08-08T08:50:58;1.50;;;1.40;;
27802;SDS011;15182;48.174;11.562;2023-08-08T08:53:27;1.50;;;1.40;;
27802;SDS011;15182;48.174;11.562;2023-08-08T08:55:56;1.60;;;1.60;;
27802;SDS011;15182;48.174;11.562;2023-08-08T08:58:24;1.50;;;1.50;;
27802;SDS011;15182;48.174;11.562;2023-08-08T09:00:54;1.38;;;1.38;;
27802;SDS011;15182;48.174;11.562;2023-08-08T09:03:22;1.40;;;1.40;;
27802;SDS011;15182;48.174;11.562;2023-08-08T09:05:50;1.27;;;1.27;;
27802;SDS011;15182;48.174;11.562;2023-08-08T09:08:20;1.40;;;1.40;;
27802;SDS011;15182;48.174;11.562;2023-08-08T09:10:49;1.45;;;1.45;;
27802;SDS011;15182;48.174;11.562;2023-08-08T09:13:17;1.38;;;1.38;;
27802;SDS011;15182;48.174;11.562;2023-08-08T09:15:48;1.20;;;1.20;;
27802;SDS011;15182;48.174;11.562;2023-08-08T09:18:16;1.50;;;1.40;;
27802;SDS011;15182;48.174;11.562;2023-08-08T09:20:46;1.30;;;1.30;;
27802;SDS011;15182;48.174;11.562;2023-08-08T09:23:15;1.42;;;1.30;;
27802;SDS011;15182;48.174;11.562;2023-08-08T09:25:43;1.33;;;1.33;;
27802;SDS011;15182;48.174;11.562;2023-08-08T09:28:12;1.13;;;1.13;;
27802;SDS011;15182;48.174;11.562;2023-08-08T09:30:40;3.85;;;1.65;;
27802;SDS011;15182;48.174;11.562;2023-08-08T09:33:09;1.50;;;1.40;;
27802;SDS011;15182;48.174;11.562;2023-08-08T09:35:38;1.55;;;1.55;;
27802;SDS011;15182;48.174;11.562;2023-08-08T09:38:06;1.50;;;1.50;;
27802;SDS011;15182;48.174;11.562;2023-08-08T09:40:34;1.52;;;1.50;;
27802;SDS011;15182;48.174;11.562;2023-08-08T09:43:02;1.40;;;1.40;;
27802;SDS011;15182;48.174;11.562;2023-08-08T09:45:36;1.20;;;1.20;;
27802;SDS011;15182;48.174;11.562;2023-08-08T09:48:05;1.23;;;1.23;;
27802;SDS011;15182;48.174;11.562;2023-08-08T09:50:33;1.20;;;1.20;;
27802;SDS011;15182;48.174;11.562;2023-08-08T09:53:02;1.40;;;1.30;;
27802;SDS011;15182;48.174;11.562;2023-08-08T09:55:30;1.33;;;1.33;;
27802;SDS011;15182;48.174;11.562;2023-08-08T09:58:00;1.35;;;1.20;;
27802;SDS011;15182;48.174;11.562;2023-08-08T10:00:29;1.20;;;1.20;;
27802;SDS011;15182;48.174;11.562;2023-08-08T10:03:01;2.67;;;1.40;;
27802;SDS011;15182;48.174;11.562;2023-08-08T10:05:29;1.40;;;1.40;;
27802;SDS011;15182;48.174;11.562;2023-08-08T10:07:57;1.85;;;1.50;;
27802;SDS011;15182;48.174;11.562;2023-08-08T10:10:25;1.40;;;1.40;;
27802;SDS011;15182;48.174;11.562;2023-08-08T10:12:54;1.40;;;1.40;;
27802;SDS011;15182;48.174;11.562;2023-08-08T10:15:25;1.20;;;1.20;;
27802;SDS011;15182;48.174;11.562;2023-08-08T10:17:53;1.88;;;1.40;;
27802;SDS011;15182;48.174;11.562;2023-08-08T10:20:25;1.17;;;1.17;;
27802;SDS011;15182;48.174;11.562;2023-08-08T10:22:53;1.60;;;1.60;;
27802;SDS011;15182;48.174;11.562;2023-08-08T10:25:25;1.50;;;1.40;;
27802;SDS011;15182;48.174;11.562;2023-08-08T10:28:05;3.20;;;1.20;;
27802;SDS011;15182;48.174;11.562;2023-08-08T10:30:42;1.27;;;1.20;;
27802;SDS011;15182;48.174;11.562;2023-08-08T10:33:15;1.23;;;1.23;;
27802;SDS011;15182;48.174;11.562;2023-08-08T10:35:53;3.22;;;1.30;;
27802;SDS011;15182;48.174;11.562;2023-08-08T10:38:24;1.40;;;1.40;;
27802;SDS011;15182;48.174;11.562;2023-08-08T10:40:56;4.57;;;1.40;;
27802;SDS011;15182;48.174;11.562;2023-08-08T10:43:25;1.50;;;1.50;;
27802;SDS011;15182;48.174;11.562;2023-08-08T10:45:57;1.50;;;1.40;;
27802;SDS011;15182;48.174;11.562;2023-08-08T10:48:26;1.50;;;1.50;;
27802;SDS011;15182;48.174;11.562;2023-08-08T10:50:55;1.50;;;1.40;;
27802;SDS011;15182;48.174;11.562;2023-08-08T10:53:25;1.20;;;1.20;;
27802;SDS011;15182;48.174;11.562;2023-08-08T10:55:57;1.75;;;1.42;;
27802;SDS011;15182;48.174;11.562;2023-08-08T10:58:36;1.33;;;1.30;;
27802;SDS011;15182;48.174;11.562;2023-08-08T11:01:05;1.15;;;1.15;;
27802;SDS011;15182;48.174;11.562;2023-08-08T11:03:35;1.23;;;1.15;;
27802;SDS011;15182;48.174;11.562;2023-08-08T11:06:07;1.27;;;1.27;;
27802;SDS011;15182;48.174;11.562;2023-08-08T11:08:36;1.20;;;1.20;;
27802;SDS011;15182;48.174;11.562;2023-08-08T11:11:04;1.35;;;1.35;;
27802;SDS011;15182;48.174;11.562;2023-08-08T11:13:33;1.13;;;1.13;;
27802;SDS011;15182;48.174;11.562;2023-08-08T11:16:01;1.10;;;1.10;;
27802;SDS011;15182;48.174;11.562;2023-08-08T11:18:29;1.30;;;1.30;;
27802;SDS011;15182;48.174;11.562;2023-08-08T11:20:57;2.20;;;1.50;;
27802;SDS011;15182;48.174;11.562;2023-08-08T11:23:26;1.25;;;1.25;;
27802;SDS011;15182;48.174;11.562;2023-08-08T11:25:54;1.35;;;1.10;;
27802;SDS011;15182;48.174;11.562;2023-08-08T11:28:22;1.83;;;1.73;;
27802;SDS011;15182;48.174;11.562;2023-08-08T11:30:50;1.33;;;1.33;;
27802;SDS011;15182;48.174;11.562;2023-08-08T11:33:18;3.15;;;1.20;;
27802;SDS011;15182;48.174;11.562;2023-08-08T11:35:45;1.52;;;1.42;;
27802;SDS011;15182;48.174;11.562;2023-08-08T11:38:15;1.60;;;1.50;;
27802;SDS011;15182;48.174;11.562;2023-08-08T11:40:45;1.30;;;1.30;;
27802;SDS011;15182;48.174;11.562;2023-08-08T11:43:13;1.40;;;1.35;;
27802;SDS011;15182;48.174;11.562;2023-08-08T11:45:42;1.42;;;1.42;;
27802;SDS011;15182;48.174;11.562;2023-08-08T11:48:10;1.38;;;1.30;;
27802;SDS011;15182;48.174;11.562;2023-08-08T11:50:37;1.15;;;1.15;;
27802;SDS011;15182;48.174;11.562;2023-08-08T11:53:08;1.05;;;1.05;;
27802;SDS011;15182;48.174;11.562;2023-08-08T11:55:36;1.20;;;1.20;;
27802;SDS011;15182;48.174;11.562;2023-08-08T11:58:05;1.20;;;1.20;;
27802;SDS011;15182;48.174;11.562;2023-08-08T12:00:33;1.20;;;1.20;;
27802;SDS011;15182;48.174;11.562;2023-08-08T12:03:02;1.27;;;1.27;;
27802;SDS011;15182;48.174;11.562;2023-08-08T12:05:36;1.20;;;1.20;;
27802;SDS011;15182;48.174;11.562;2023-08-08T12:08:05;1.10;;;1.10;;
27802;SDS011;15182;48.174;11.562;2023-08-08T12:10:33;1.30;;;1.30;;
27802;SDS011;15182;48.174;11.562;2023-08-08T12:13:01;1.20;;;1.20;;
27802;SDS011;15182;48.174;11.562;2023-08-08T12:15:31;1.23;;;1.23;;
27802;SDS011;15182;48.174;11.562;2023-08-08T12:18:01;1.23;;;1.23;;
27802;SDS011;15182;48.174;11.562;2023-08-08T12:20:30;1.40;;;1.40;;
27802;SDS011;15182;48.174;11.562;2023-08-08T12:22:59;2.83;;;1.10;;
27802;SDS011;15182;48.174;11.562;2023-08-08T12:25:27;1.20;;;1.20;;
27802;SDS011;15182;48.174;11.562;2023-08-08T12:27:54;1.45;;;1.17;;
27802;SDS011;15182;48.174;11.562;2023-08-08T12:30:22;1.55;;;1.45;;
27802;SDS011;15182;48.174;11.562;2023-08-08T12:32:51;1.35;;;1.35;;
27802;SDS011;15182;48.174;11.562;2023-08-08T12:35:20;1.35;;;1.25;;
27802;SDS011;15182;48.174;11.562;2023-08-08T12:37:48;1.40;;;1.40;;
27802;SDS011;15182;48.174;11.562;2023-08-08T12:40:15;1.13;;;1.13;;
27802;SDS011;15182;48.174;11.562;2023-08-08T12:42:43;1.27;;;1.27;;
27802;SDS011;15182;48.174;11.562;2023-08-08T12:45:11;1.40;;;1.35;;
27802;SDS011;15182;48.174;11.562;2023-08-08T12:47:39;1.40;;;1.40;;
27802;SDS011;15182;48.174;11.562;2023-08-08T12:50:09;1.30;;;1.30;;
27802;SDS011;15182;48.174;11.562;2023-08-08T12:52:37;1.40;;;1.40;;
27802;SDS011;15182;48.174;11.562;2023-08-08T12:55:06;1.25;;;1.25;;
27802;SDS011;15182;48.174;11.562;2023-08-08T12:57:36;1.20;;;1.20;;
27802;SDS011;15182;48.174;11.562;2023-08-08T13:00:06;1.20;;;1.10;;
27802;SDS011;15182;48.174;11.562;2023-08-08T13:02:36;1.27;;;1.27;;
27802;SDS011;15182;48.174;11.562;2023-08-08T13:05:05;1.35;;;1.25;;
27802;SDS011;15182;48.174;11.562;2023-08-08T13:07:35;1.27;;;1.27;;
27802;SDS011;15182;48.174;11.562;2023-08-08T13:10:03;1.35;;;1.35;;
27802;SDS011;15182;48.174;11.562;2023-08-08T13:12:32;1.38;;;1.30;;
27802;SDS011;15182;48.174;11.562;2023-08-08T13:15:00;1.20;;;1.20;;
27802;SDS011;15182;48.174;11.562;2023-08-08T13:17:27;1.80;;;1.40;;
27802;SDS011;15182;48.174;11.562;2023-08-08T13:19:56;1.50;;;1.40;;
27802;SDS011;15182;48.174;11.562;2023-08-08T13:22:24;1.60;;;1.42;;
27802;SDS011;15182;48.174;11.562;2023-08-08T13:24:53;1.20;;;1.20;;
27802;SDS011;15182;48.174;11.562;2023-08-08T13:27:21;1.10;;;1.10;;
27802;SDS011;15182;48.174;11.562;2023-08-08T13:29:49;1.15;;;1.15;;
27802;SDS011;15182;48.174;11.562;2023-08-08T13:32:16;1.23;;;1.23;;
27802;SDS011;15182;48.174;11.562;2023-08-08T13:34:44;1.30;;;1.30;;
27802;SDS011;15182;48.174;11.562;2023-08-08T13:37:12;1.30;;;1.30;;
27802;SDS011;15182;48.174;11.562;2023-08-08T13:39:40;1.40;;;1.40;;
27802;SDS011;15182;48.174;11.562;2023-08-08T13:42:09;1.75;;;1.48;;
27802;SDS011;15182;48.174;11.562;2023-08-08T13:44:37;1.23;;;1.23;;
27802;SDS011;15182;48.174;11.562;2023-08-08T13:47:05;1.33;;;1.33;;
27802;SDS011;15182;48.174;11.562;2023-08-08T13:49:32;2.55;;;1.85;;
27802;SDS011;15182;48.174;11.562;2023-08-08T13:52:01;1.63;;;1.52;;
27802;SDS011;15182;48.174;11.562;2023-08-08T13:54:29;1.40;;;1.40;;
27802;SDS011;15182;48.174;11.562;2023-08-08T13:56:57;1.42;;;1.42;;
27802;SDS011;15182;48.174;11.562;2023-08-08T13:59:26;1.20;;;1.20;;
27802;SDS011;15182;48.174;11.562;2023-08-08T14:01:54;2.90;;;2.55;;
27802;SDS011;15182;48.174;11.562;2023-08-08T14:04:22;2.50;;;2.40;;
27802;SDS011;15182;48.174;11.562;2023-08-08T14:06:50;2.20;;;2.10;;
27802;SDS011;15182;48.174;11.562;2023-08-08T14:09:17;1.70;;;1.60;;
27802;SDS011;15182;48.174;11.562;2023-08-08T14:11:45;1.48;;;1.48;;
27802;SDS011;15182;48.174;11.562;2023-08-08T14:14:13;2.45;;;1.75;;
27802;SDS011;15182;48.174;11.562;2023-08-08T14:16:42;1.20;;;1.20;;
27802;SDS011;15182;48.174;11.562;2023-08-08T14:19:10;1.50;;;1.50;;
27802;SDS011;15182;48.174;11.562;2023-08-08T14:21:38;1.35;;;1.33;;
27802;SDS011;15182;48.174;11.562;2023-08-08T14:24:06;1.77;;;1.75;;
27802;SDS011;15182;48.174;11.562;2023-08-08T14:26:34;1.40;;;1.40;;
27802;SDS011;15182;48.174;11.562;2023-08-08T14:29:02;1.42;;;1.42;;
27802;SDS011;15182;48.174;11.562;2023-08-08T14:31:31;1.58;;;1.58;;
27802;SDS011;15182;48.174;11.562;2023-08-08T14:34:00;1.40;;;1.40;;
27802;SDS011;15182;48.174;11.562;2023-08-08T14:36:27;1.52;;;1.52;;
27802;SDS011;15182;48.174;11.562;2023-08-08T14:38:55;1.38;;;1.38;;
27802;SDS011;15182;48.174;11.562;2023-08-08T14:41:23;1.50;;;1.50;;